Time;durP1;ratioP1;P1;durP2;ratioP2;P2;SDS_P1;SDS_P2;PMS_P1;PMS_P2;Temp;Humidity;BMP_temperature;BMP_pressure;BME280_temperature;BME280_humidity;BME280_pressure;Samples;Min_cycle;Max_cycle;Signal;HPM_P1;HPM_P2
2021/06/14 00:00:24;;;;;;;3.03;1.80;;;22.90;46.70;;;;;;5073191;28;20039;-86
2021/06/14 00:02:51;;;;;;;2.83;1.88;;;22.90;46.80;;;;;;5073937;28;20361;-85
2021/06/14 00:05:35;;;;;;;2.85;1.80;;;22.80;46.80;;;;;;5056498;28;20043;-85
2021/06/14 00:08:04;;;;;;;2.38;1.55;;;22.80;46.80;;;;;;5056351;28;20037;-85
2021/06/14 00:10:31;;;;;;;2.67;1.67;;;22.80;46.90;;;;;;5072496;28;20051;-86
2021/06/14 00:12:57;;;;;;;2.22;1.40;;;22.70;46.90;;;;;;5044035;28;20071;-85
2021/06/14 00:15:24;;;;;;;2.47;1.70;;;22.70;47.00;;;;;;5053021;28;20052;-85
2021/06/14 00:17:50;;;;;;;3.22;1.77;;;22.70;47.00;;;;;;5036084;28;20115;-85
2021/06/14 00:20:18;;;;;;;2.90;1.60;;;22.60;47.00;;;;;;5044040;28;20593;-85
2021/06/14 00:22:44;;;;;;;2.53;1.63;;;22.60;47.10;;;;;;5050259;28;20473;-84
2021/06/14 00:25:13;;;;;;;3.15;1.80;;;22.60;47.10;;;;;;5044037;28;20055;-86
2021/06/14 00:27:39;;;;;;;3.17;1.90;;;22.60;47.20;;;;;;5044684;28;20102;-86
2021/06/14 00:30:06;;;;;;;2.00;1.60;;;22.50;47.20;;;;;;5051318;28;20350;-86
2021/06/14 00:32:33;;;;;;;3.92;2.30;;;22.50;47.20;;;;;;5065305;28;20060;-85
2021/06/14 00:34:59;;;;;;;3.03;1.70;;;22.40;47.20;;;;;;5045496;28;20056;-86
2021/06/14 00:37:24;;;;;;;4.18;1.98;;;22.40;47.30;;;;;;5055549;28;20032;-85
2021/06/14 00:39:50;;;;;;;2.78;1.95;;;22.40;47.30;;;;;;5036258;28;20113;-84
2021/06/14 00:42:16;;;;;;;2.88;1.65;;;22.40;47.40;;;;;;5035901;28;20032;-85
2021/06/14 00:44:42;;;;;;;2.70;1.80;;;22.30;47.30;;;;;;5039014;28;20032;-84
2021/06/14 00:47:08;;;;;;;2.28;1.50;;;22.30;47.40;;;;;;5048407;28;20051;-85
2021/06/14 00:49:36;;;;;;;2.72;1.55;;;22.20;47.40;;;;;;5058583;28;20110;-86
2021/06/14 00:52:04;;;;;;;2.63;1.70;;;22.30;47.50;;;;;;5051675;28;20028;-85
2021/06/14 00:54:30;;;;;;;2.45;1.55;;;22.20;47.50;;;;;;5066895;28;20127;-85
2021/06/14 00:56:56;;;;;;;3.40;2.08;;;22.20;47.50;;;;;;5041517;28;20031;-85
2021/06/14 00:59:22;;;;;;;3.50;2.00;;;22.20;47.60;;;;;;5058468;28;20017;-85
2021/06/14 01:01:48;;;;;;;2.00;1.50;;;22.10;47.60;;;;;;5058593;28;20031;-85
2021/06/14 01:04:14;;;;;;;3.10;1.70;;;22.10;47.60;;;;;;5075217;28;20028;-85
2021/06/14 01:06:40;;;;;;;2.70;1.88;;;22.10;47.70;;;;;;5035460;28;20253;-86
2021/06/14 01:09:07;;;;;;;2.75;1.70;;;22.10;47.70;;;;;;5067362;28;20035;-85
2021/06/14 01:12:02;;;;;;;2.67;1.65;;;22.00;47.80;;;;;;5041244;28;20036;-84
2021/06/14 01:14:45;;;;;;;2.83;1.60;;;22.00;48.00;;;;;;5053854;28;20028;-84
2021/06/14 01:17:19;;;;;;;1.83;1.37;;;21.90;47.90;;;;;;5075288;28;20020;-84
2021/06/14 01:20:30;;;;;;;2.78;1.55;;;21.90;48.00;;;;;;5059134;28;20282;-85
2021/06/14 01:23:35;;;;;;;2.63;1.60;;;21.90;48.10;;;;;;5068379;28;20035;-83
2021/06/14 01:26:06;;;;;;;3.17;1.98;;;21.80;48.10;;;;;;5057387;28;20115;-85
2021/06/14 01:28:34;;;;;;;3.15;1.80;;;21.80;48.10;;;;;;5051347;28;20047;-85
2021/06/14 01:31:04;;;;;;;2.08;1.60;;;21.80;48.20;;;;;;5070383;28;20102;-84
2021/06/14 01:33:34;;;;;;;2.75;1.85;;;21.70;48.20;;;;;;5037448;28;20075;-84
2021/06/14 01:36:22;;;;;;;2.22;1.80;;;21.70;48.30;;;;;;5055290;28;20056;-85
2021/06/14 01:38:50;;;;;;;2.30;1.60;;;21.70;48.40;;;;;;5038603;28;20043;-85
2021/06/14 01:41:20;;;;;;;3.28;1.77;;;21.70;48.40;;;;;;5056729;28;20127;-85
2021/06/14 01:43:48;;;;;;;3.08;1.75;;;21.70;48.50;;;;;;5058275;28;20102;-84
2021/06/14 01:46:28;;;;;;;3.05;1.92;;;21.60;48.60;;;;;;5058270;28;20020;-85
2021/06/14 01:48:59;;;;;;;2.45;1.85;;;21.50;48.60;;;;;;5054225;28;20048;-84
2021/06/14 01:51:29;;;;;;;2.80;1.73;;;21.50;48.50;;;;;;5017756;28;20124;-85
2021/06/14 01:54:05;;;;;;;2.33;1.75;;;21.50;48.60;;;;;;5045189;28;20103;-84
2021/06/14 01:56:43;;;;;;;2.33;1.70;;;21.50;48.60;;;;;;5049617;28;20029;-85
2021/06/14 01:59:20;;;;;;;2.72;1.80;;;21.50;48.70;;;;;;5051347;28;20493;-84
2021/06/14 02:01:52;;;;;;;2.80;1.70;;;21.40;48.70;;;;;;5065626;28;20074;-84
2021/06/14 02:04:18;;;;;;;2.65;1.75;;;21.40;48.70;;;;;;5044881;28;20029;-85
2021/06/14 02:06:55;;;;;;;2.67;1.70;;;21.40;48.80;;;;;;5028451;28;20029;-85
2021/06/14 02:09:24;;;;;;;2.80;1.90;;;21.30;48.80;;;;;;5071947;28;20029;-85
2021/06/14 02:11:56;;;;;;;2.55;1.80;;;21.30;48.90;;;;;;5054202;28;20029;-85
2021/06/14 02:14:28;;;;;;;2.65;2.10;;;21.30;49.60;;;;;;5053448;28;20025;-83
2021/06/14 02:16:57;;;;;;;2.53;1.75;;;21.30;49.00;;;;;;5053757;28;20025;-84
2021/06/14 02:19:22;;;;;;;3.40;2.03;;;21.20;49.00;;;;;;5050142;28;20029;-84
2021/06/14 02:21:49;;;;;;;3.30;1.80;;;21.20;49.00;;;;;;5050165;28;20040;-85
2021/06/14 02:24:16;;;;;;;2.55;1.88;;;21.20;49.10;;;;;;5034396;28;20021;-85
2021/06/14 02:26:45;;;;;;;2.80;2.00;;;21.20;49.10;;;;;;5042834;28;20036;-84
2021/06/14 02:29:11;;;;;;;3.17;1.90;;;21.10;49.10;;;;;;5034060;28;20033;-85
2021/06/14 02:31:37;;;;;;;2.38;1.80;;;21.10;49.20;;;;;;5065419;28;20035;-86
2021/06/14 02:34:05;;;;;;;3.08;2.03;;;21.10;49.20;;;;;;5054033;28;20025;-85
2021/06/14 02:36:32;;;;;;;2.85;1.90;;;21.10;49.30;;;;;;5049991;28;20017;-85
2021/06/14 02:39:02;;;;;;;4.05;2.20;;;21.10;49.30;;;;;;5050715;28;20033;-84
2021/06/14 02:41:29;;;;;;;3.22;2.03;;;21.00;49.40;;;;;;5040573;28;20116;-85
2021/06/14 02:43:54;;;;;;;2.97;1.80;;;21.00;49.40;;;;;;5068103;28;20024;-85
2021/06/14 02:46:22;;;;;;;3.10;1.95;;;20.90;49.40;;;;;;5064750;28;20380;-85
2021/06/14 02:48:50;;;;;;;3.60;2.15;;;20.90;49.50;;;;;;5058960;28;20500;-84
2021/06/14 02:51:19;;;;;;;3.47;2.10;;;20.90;49.60;;;;;;5052629;28;20065;-85
2021/06/14 02:54:03;;;;;;;3.88;2.50;;;20.90;49.60;;;;;;5039468;28;20481;-85
2021/06/14 02:56:35;;;;;;;3.90;1.98;;;20.90;49.60;;;;;;5073745;28;20029;-85
2021/06/14 02:59:04;;;;;;;3.50;2.33;;;20.80;49.60;;;;;;5057406;28;20048;-85
2021/06/14 03:01:32;;;;;;;3.13;2.03;;;20.80;49.70;;;;;;5056758;28;20373;-85
2021/06/14 03:04:01;;;;;;;3.03;2.00;;;20.80;49.70;;;;;;5074094;28;20028;-85
2021/06/14 03:06:28;;;;;;;3.10;2.00;;;20.70;49.70;;;;;;5068029;28;20033;-85
2021/06/14 03:08:56;;;;;;;3.60;2.40;;;20.70;49.80;;;;;;5057464;28;20025;-84
2021/06/14 03:11:28;;;;;;;3.72;2.17;;;20.70;49.80;;;;;;5057036;28;20017;-83
2021/06/14 03:13:58;;;;;;;4.75;2.30;;;20.70;49.90;;;;;;5073362;28;20029;-84
2021/06/14 03:16:26;;;;;;;3.60;2.38;;;20.60;49.80;;;;;;5053770;28;20112;-85
2021/06/14 03:18:53;;;;;;;4.10;2.15;;;20.60;49.90;;;;;;5052021;28;20108;-84
2021/06/14 03:21:23;;;;;;;4.28;2.20;;;20.50;49.90;;;;;;5038463;28;20056;-85
2021/06/14 03:23:51;;;;;;;3.42;2.15;;;20.50;50.00;;;;;;5056695;28;20036;-84
2021/06/14 03:26:21;;;;;;;3.63;2.17;;;20.50;50.00;;;;;;5056956;28;20041;-84
2021/06/14 03:28:49;;;;;;;3.72;2.55;;;20.50;50.10;;;;;;5072416;28;20036;-85
2021/06/14 03:31:16;;;;;;;3.13;2.35;;;20.40;50.10;;;;;;5042880;28;20029;-84
2021/06/14 03:33:48;;;;;;;3.63;2.55;;;20.40;50.10;;;;;;5056471;28;20059;-85
2021/06/14 03:36:16;;;;;;;4.20;2.47;;;20.40;50.30;;;;;;5051427;28;20029;-84
2021/06/14 03:38:47;;;;;;;4.00;2.42;;;20.40;50.30;;;;;;5071216;28;20090;-84
2021/06/14 03:41:13;;;;;;;3.03;2.05;;;20.40;50.30;;;;;;5042368;28;20477;-85
2021/06/14 03:43:40;;;;;;;4.25;2.28;;;20.30;50.30;;;;;;5073461;28;20044;-84
2021/06/14 03:46:06;;;;;;;3.33;2.42;;;20.30;50.30;;;;;;5074825;28;20035;-83
2021/06/14 03:48:32;;;;;;;3.67;2.15;;;20.20;50.40;;;;;;5068768;28;20068;-84
2021/06/14 03:50:57;;;;;;;2.97;2.20;;;20.20;50.40;;;;;;5071947;28;20508;-84
2021/06/14 03:53:32;;;;;;;3.60;2.20;;;20.20;50.50;;;;;;5072657;28;20050;-84
2021/06/14 03:56:00;;;;;;;4.28;2.20;;;20.20;50.50;;;;;;5045846;28;20029;-85
2021/06/14 03:58:26;;;;;;;4.38;2.20;;;20.10;50.50;;;;;;5072781;28;20044;-85
2021/06/14 04:00:52;;;;;;;4.03;2.50;;;20.10;50.50;;;;;;5055916;28;20033;-85
2021/06/14 04:03:19;;;;;;;3.15;2.22;;;20.10;50.60;;;;;;5036739;28;20033;-84
2021/06/14 04:05:46;;;;;;;2.88;2.08;;;20.10;50.70;;;;;;5056091;28;20611;-85
2021/06/14 04:08:37;;;;;;;3.17;2.10;;;20.00;50.70;;;;;;5064308;28;20436;-85
2021/06/14 04:11:04;;;;;;;2.95;2.30;;;20.00;50.80;;;;;;5056494;28;20025;-86
2021/06/14 04:13:30;;;;;;;3.22;2.08;;;20.00;51.50;;;;;;5022878;28;20028;-86
2021/06/14 04:15:56;;;;;;;3.63;2.47;;;19.90;50.90;;;;;;5054135;28;20029;-85
2021/06/14 04:18:22;;;;;;;3.85;2.50;;;20.00;50.90;;;;;;5055476;28;20454;-86
2021/06/14 04:20:47;;;;;;;5.07;2.42;;;19.90;50.90;;;;;;5037263;28;20524;-85
2021/06/14 04:23:13;;;;;;;3.10;2.10;;;19.90;51.00;;;;;;5055173;28;20158;-85
2021/06/14 04:25:39;;;;;;;3.00;2.22;;;19.90;51.10;;;;;;5030628;28;20061;-85
2021/06/14 04:28:07;;;;;;;4.53;2.65;;;19.90;51.10;;;;;;5052675;28;20273;-86
2021/06/14 04:30:34;;;;;;;4.43;2.70;;;19.80;51.10;;;;;;5051628;28;20053;-85
2021/06/14 04:33:00;;;;;;;3.88;2.67;;;19.80;51.20;;;;;;5068609;28;20021;-84
2021/06/14 04:35:26;;;;;;;3.63;2.22;;;19.80;51.20;;;;;;5037760;28;20043;-85
2021/06/14 04:37:52;;;;;;;3.28;2.20;;;19.80;51.30;;;;;;5051049;28;20037;-85
2021/06/14 04:40:18;;;;;;;4.47;2.33;;;19.80;51.30;;;;;;5043902;28;20021;-84
2021/06/14 04:42:44;;;;;;;4.32;2.55;;;19.80;51.30;;;;;;5070598;28;20104;-85
2021/06/14 04:45:11;;;;;;;3.92;2.25;;;19.80;51.40;;;;;;5021900;28;20032;-82
2021/06/14 04:47:36;;;;;;;3.40;2.35;;;19.80;51.40;;;;;;5041527;28;20106;-84
2021/06/14 04:50:03;;;;;;;2.90;2.20;;;19.70;51.40;;;;;;5048920;28;20124;-84
2021/06/14 04:52:29;;;;;;;3.72;2.30;;;19.80;51.50;;;;;;5051565;28;20665;-87
2021/06/14 04:54:55;;;;;;;3.83;2.55;;;19.70;51.50;;;;;;5031305;28;20120;-83
2021/06/14 04:57:22;;;;;;;2.85;2.15;;;19.70;51.50;;;;;;5034758;28;20063;-81
2021/06/14 04:59:47;;;;;;;3.88;2.15;;;19.70;51.60;;;;;;5033265;28;20151;-84
2021/06/14 05:02:13;;;;;;;4.40;2.58;;;19.70;51.60;;;;;;5029014;28;20025;-83
2021/06/14 05:04:39;;;;;;;3.50;2.35;;;19.70;51.60;;;;;;5048892;28;20039;-83
2021/06/14 05:07:05;;;;;;;3.72;2.40;;;19.70;51.70;;;;;;5034467;28;20489;-84
2021/06/14 05:09:31;;;;;;;3.50;2.42;;;19.70;51.70;;;;;;5031428;28;20041;-80
2021/06/14 05:11:57;;;;;;;3.75;2.30;;;19.70;51.70;;;;;;5021478;28;20021;-81
2021/06/14 05:14:22;;;;;;;3.38;2.22;;;19.70;51.70;;;;;;5029949;28;20040;-80
2021/06/14 05:16:48;;;;;;;2.85;2.05;;;19.70;51.70;;;;;;5026939;28;20109;-83
2021/06/14 05:19:14;;;;;;;2.95;2.15;;;19.70;51.80;;;;;;5047808;28;20128;-82
2021/06/14 05:21:42;;;;;;;3.17;2.40;;;19.60;51.70;;;;;;5051801;28;20392;-89
2021/06/14 05:24:08;;;;;;;3.33;2.28;;;19.70;51.80;;;;;;5006666;28;20037;-89
2021/06/14 05:26:33;;;;;;;3.65;2.40;;;19.70;51.80;;;;;;5034372;28;20083;-91
2021/06/14 05:28:59;;;;;;;4.38;2.30;;;19.60;51.80;;;;;;5051926;28;20541;-87
2021/06/14 05:31:25;;;;;;;3.70;2.25;;;19.70;51.80;;;;;;5051238;28;20440;-82
2021/06/14 05:33:51;;;;;;;3.35;2.20;;;19.70;51.80;;;;;;5034132;28;20436;-88
2021/06/14 05:36:16;;;;;;;3.47;2.30;;;19.70;51.80;;;;;;5046385;28;20037;-82
2021/06/14 05:38:42;;;;;;;3.75;2.55;;;19.70;51.80;;;;;;5048141;28;20528;-83
2021/06/14 05:41:08;;;;;;;3.53;2.20;;;19.70;51.80;;;;;;5050654;28;20032;-83
2021/06/14 05:43:34;;;;;;;3.28;2.30;;;19.70;51.80;;;;;;5030547;28;20057;-84
2021/06/14 05:46:00;;;;;;;3.88;2.50;;;19.70;51.80;;;;;;5052549;28;20074;-86
2021/06/14 05:48:25;;;;;;;3.60;2.20;;;19.70;51.80;;;;;;5044967;28;20045;-82
2021/06/14 05:50:51;;;;;;;3.22;2.33;;;19.70;51.80;;;;;;5049335;28;20032;-83
2021/06/14 05:53:17;;;;;;;3.22;2.10;;;19.70;51.80;;;;;;5051771;28;20248;-84
2021/06/14 05:55:43;;;;;;;3.83;2.13;;;19.70;51.80;;;;;;5070588;28;20040;-85
2021/06/14 05:58:08;;;;;;;3.72;2.33;;;19.70;51.80;;;;;;5063286;28;20033;-82
2021/06/14 06:00:34;;;;;;;3.33;2.13;;;19.70;51.80;;;;;;5012628;28;20029;-82
2021/06/14 06:03:00;;;;;;;3.45;2.10;;;19.70;51.80;;;;;;5070451;28;20064;-82
2021/06/14 06:05:26;;;;;;;3.55;2.22;;;19.70;51.70;;;;;;5070606;28;20029;-82
2021/06/14 06:07:52;;;;;;;3.28;2.33;;;19.70;51.80;;;;;;5053056;28;20033;-82
2021/06/14 06:10:18;;;;;;;4.20;2.33;;;19.70;51.80;;;;;;5017144;28;20040;-83
2021/06/14 06:12:44;;;;;;;3.25;2.20;;;19.70;51.80;;;;;;5070549;28;20017;-83
2021/06/14 06:15:16;;;;;;;3.58;2.10;;;19.70;51.80;;;;;;5053417;28;20043;-82
2021/06/14 06:17:43;;;;;;;3.45;2.28;;;19.70;51.80;;;;;;5053875;28;20468;-83
2021/06/14 06:20:11;;;;;;;3.45;2.20;;;19.80;51.80;;;;;;5070101;28;20528;-82
2021/06/14 06:22:37;;;;;;;3.97;2.38;;;19.70;51.80;;;;;;5052631;28;20401;-87
2021/06/14 06:25:06;;;;;;;4.78;2.35;;;19.80;51.80;;;;;;5057039;28;20025;-82
2021/06/14 06:27:32;;;;;;;3.30;2.15;;;19.80;51.90;;;;;;5057771;28;20492;-83
2021/06/14 06:29:57;;;;;;;3.78;2.08;;;19.80;51.90;;;;;;5073994;28;20012;-81
2021/06/14 06:32:23;;;;;;;3.55;2.05;;;19.80;51.90;;;;;;5073995;28;20036;-82
2021/06/14 06:34:49;;;;;;;3.45;2.10;;;19.80;51.90;;;;;;5057012;28;20029;-82
2021/06/14 06:37:15;;;;;;;3.50;2.15;;;19.90;51.90;;;;;;5075015;28;20453;-82
2021/06/14 06:39:40;;;;;;;3.38;2.30;;;19.80;51.90;;;;;;5046099;28;20024;-82
2021/06/14 06:42:07;;;;;;;4.22;2.30;;;19.90;52.00;;;;;;5073723;28;20036;-82
2021/06/14 06:44:32;;;;;;;2.75;2.03;;;19.90;52.00;;;;;;5074031;28;20028;-82
2021/06/14 06:47:00;;;;;;;3.80;2.22;;;19.90;52.00;;;;;;5075270;28;20036;-80
2021/06/14 06:49:27;;;;;;;3.15;2.10;;;19.90;52.00;;;;;;5044209;28;20131;-83
2021/06/14 06:51:52;;;;;;;2.97;2.10;;;19.90;52.00;;;;;;5056446;28;20028;-81
2021/06/14 06:54:18;;;;;;;3.40;2.22;;;20.00;52.10;;;;;;5059934;28;20039;-82
2021/06/14 06:56:50;;;;;;;3.33;2.20;;;20.00;52.10;;;;;;5056540;28;20031;-81
2021/06/14 06:59:16;;;;;;;2.72;1.83;;;20.00;52.20;;;;;;5069906;28;20035;-83
2021/06/14 07:01:44;;;;;;;2.75;2.00;;;20.00;52.10;;;;;;5095917;28;20032;-86
2021/06/14 07:04:10;;;;;;;3.10;2.10;;;20.00;52.10;;;;;;5047562;28;20032;-83
2021/06/14 07:06:36;;;;;;;3.88;2.40;;;20.00;52.10;;;;;;5077101;28;20024;-85
2021/06/14 07:09:03;;;;;;;3.30;1.95;;;20.00;52.10;;;;;;5057002;28;20058;-85
2021/06/14 07:11:30;;;;;;;3.90;2.35;;;20.10;52.10;;;;;;5076891;28;20167;-83
2021/06/14 07:13:56;;;;;;;3.63;2.03;;;20.10;52.10;;;;;;5076369;28;20024;-82
2021/06/14 07:16:22;;;;;;;3.70;2.22;;;20.10;52.10;;;;;;5060480;28;20035;-85
2021/06/14 07:18:49;;;;;;;3.15;1.95;;;20.10;52.10;;;;;;5072740;28;20056;-84
2021/06/14 07:21:15;;;;;;;3.67;2.10;;;20.20;52.10;;;;;;5057001;28;20042;-85
2021/06/14 07:23:41;;;;;;;2.45;1.85;;;20.20;52.10;;;;;;5057021;28;20107;-84
2021/06/14 07:26:08;;;;;;;3.28;2.30;;;20.20;52.10;;;;;;5076875;28;20024;-85
2021/06/14 07:28:34;;;;;;;3.60;1.80;;;20.30;52.10;;;;;;5057025;28;20036;-85
2021/06/14 07:31:04;;;;;;;2.65;1.85;;;20.30;52.10;;;;;;5054733;28;20170;-84
2021/06/14 07:33:30;;;;;;;3.80;2.03;;;20.30;52.10;;;;;;5051919;28;20032;-83
2021/06/14 07:35:56;;;;;;;2.15;1.80;;;20.40;52.00;;;;;;5076316;28;20032;-85
2021/06/14 07:38:23;;;;;;;2.95;2.03;;;20.40;51.90;;;;;;5094822;28;20043;-84
2021/06/14 07:40:50;;;;;;;3.10;2.00;;;20.50;51.90;;;;;;5077429;28;20024;-84
2021/06/14 07:43:17;;;;;;;3.45;1.98;;;20.60;51.90;;;;;;5039969;28;20029;-84
2021/06/14 07:45:44;;;;;;;3.25;2.00;;;20.60;51.80;;;;;;5050706;28;20028;-85
2021/06/14 07:48:10;;;;;;;3.15;2.13;;;20.70;51.70;;;;;;5091606;28;20040;-85
2021/06/14 07:50:37;;;;;;;2.90;1.75;;;20.80;51.60;;;;;;5059826;28;20068;-83
2021/06/14 07:53:03;;;;;;;3.88;2.30;;;20.90;51.60;;;;;;5057463;28;20086;-84
2021/06/14 07:55:31;;;;;;;3.67;2.20;;;20.90;51.50;;;;;;5094909;28;20043;-85
2021/06/14 07:57:57;;;;;;;3.22;1.92;;;21.00;51.40;;;;;;5043531;28;20093;-87
2021/06/14 08:00:23;;;;;;;2.95;1.98;;;21.00;51.40;;;;;;5062503;28;20040;-84
2021/06/14 08:02:49;;;;;;;2.92;1.85;;;21.20;51.40;;;;;;5094424;28;20028;-85
2021/06/14 08:05:16;;;;;;;3.20;1.83;;;21.20;51.30;;;;;;5059646;28;20376;-84
2021/06/14 08:07:42;;;;;;;3.38;2.05;;;21.30;51.30;;;;;;5077052;28;20032;-85
2021/06/14 08:10:13;;;;;;;2.83;2.10;;;21.40;51.30;;;;;;5072735;28;20123;-85
2021/06/14 08:12:45;;;;;;;3.47;2.33;;;21.50;51.30;;;;;;5072393;28;20028;-84
2021/06/14 08:15:12;;;;;;;2.83;1.88;;;21.50;51.20;;;;;;5075542;28;20464;-86
2021/06/14 08:17:38;;;;;;;3.47;1.90;;;21.70;51.30;;;;;;5058593;28;20491;-85
2021/06/14 08:20:15;;;;;;;3.78;2.00;;;21.80;51.20;;;;;;5059868;28;20430;-86
2021/06/14 08:25:09;;;;;;;3.95;2.13;;;22.00;51.20;;;;;;5056119;28;20021;-85
2021/06/14 08:27:41;;;;;;;3.22;2.05;;;22.00;51.10;;;;;;5076121;28;20032;-85
2021/06/14 08:30:20;;;;;;;4.35;2.10;;;22.10;51.20;;;;;;5059132;28;20055;-84
2021/06/14 08:32:47;;;;;;;3.08;2.05;;;22.20;51.30;;;;;;5059433;28;20209;-85
2021/06/14 08:35:15;;;;;;;2.90;1.75;;;22.30;51.30;;;;;;5045386;28;20051;-84
2021/06/14 08:37:42;;;;;;;2.05;1.63;;;22.40;51.30;;;;;;5072583;28;20104;-85
2021/06/14 08:40:09;;;;;;;3.42;1.90;;;22.50;51.30;;;;;;5042967;28;20031;-85
2021/06/14 08:42:35;;;;;;;2.50;1.70;;;22.60;51.30;;;;;;5048659;28;20488;-84
2021/06/14 08:45:01;;;;;;;3.15;1.83;;;22.70;51.30;;;;;;5076008;28;20035;-84
2021/06/14 08:47:31;;;;;;;2.60;1.65;;;22.80;51.20;;;;;;5065171;28;20049;-85
2021/06/14 08:49:58;;;;;;;2.45;1.60;;;22.90;51.20;;;;;;5088161;28;20032;-85
2021/06/14 08:52:24;;;;;;;3.08;1.83;;;23.00;51.20;;;;;;5052809;28;20031;-86
2021/06/14 08:54:51;;;;;;;2.65;1.70;;;23.10;51.10;;;;;;5074203;28;20028;-87
2021/06/14 08:57:17;;;;;;;2.60;1.70;;;23.20;51.10;;;;;;5073724;28;20031;-87
2021/06/14 08:59:44;;;;;;;2.88;1.90;;;23.30;51.10;;;;;;5082021;28;20028;-87
2021/06/14 09:02:10;;;;;;;2.72;1.75;;;23.40;51.10;;;;;;5073369;28;20016;-87
2021/06/14 09:04:36;;;;;;;2.50;1.77;;;23.50;51.10;;;;;;5058810;28;20424;-87
2021/06/14 09:07:03;;;;;;;2.45;1.88;;;23.60;51.10;;;;;;5093620;28;20032;-87
2021/06/14 09:09:30;;;;;;;2.80;1.80;;;23.70;51.10;;;;;;5058522;28;20540;-87
2021/06/14 09:11:58;;;;;;;2.38;1.63;;;23.80;51.00;;;;;;5054267;28;20107;-87
2021/06/14 09:14:27;;;;;;;2.83;1.77;;;23.90;51.00;;;;;;5058157;28;20028;-86
2021/06/14 09:17:05;;;;;;;3.35;1.73;;;24.00;51.00;;;;;;5075304;28;20052;-86
2021/06/14 09:19:50;;;;;;;2.22;1.50;;;24.10;51.00;;;;;;5044731;28;20035;-87
2021/06/14 09:22:22;;;;;;;2.83;1.60;;;24.30;51.10;;;;;;5092673;28;20020;-87
2021/06/14 09:24:59;;;;;;;2.15;1.55;;;24.40;51.00;;;;;;5057055;28;20062;-87
2021/06/14 09:27:33;;;;;;;2.20;1.60;;;24.50;51.20;;;;;;5058640;28;20366;-87
2021/06/14 09:30:25;;;;;;;2.33;1.45;;;24.60;51.00;;;;;;5074963;28;20063;-85
2021/06/14 09:32:56;;;;;;;3.17;1.52;;;24.70;51.00;;;;;;5057814;28;20468;-85
2021/06/14 09:35:24;;;;;;;3.95;1.80;;;24.80;50.90;;;;;;5057637;28;20032;-85
2021/06/14 09:38:05;;;;;;;2.95;1.67;;;24.90;50.90;;;;;;5051670;28;20376;-85
2021/06/14 09:40:40;;;;;;;2.17;1.63;;;25.00;51.00;;;;;;5062371;28;20019;-85
2021/06/14 09:43:08;;;;;;;2.75;1.67;;;25.10;50.90;;;;;;5057721;28;20073;-85
2021/06/14 09:45:40;;;;;;;3.33;1.92;;;25.30;50.90;;;;;;5074703;28;20031;-85
2021/06/14 09:48:18;;;;;;;2.03;1.40;;;25.30;50.90;;;;;;5074244;28;20058;-85
2021/06/14 09:50:45;;;;;;;2.30;1.70;;;25.50;51.00;;;;;;5073787;28;20499;-85
2021/06/14 09:53:14;;;;;;;3.08;1.92;;;25.60;50.90;;;;;;5059820;28;20090;-86
2021/06/14 09:55:42;;;;;;;3.00;1.73;;;25.70;50.90;;;;;;5092210;28;20024;-85
2021/06/14 09:58:20;;;;;;;3.53;1.75;;;25.80;50.90;;;;;;5092563;28;20024;-85
2021/06/14 10:01:03;;;;;;;3.58;1.90;;;25.90;50.90;;;;;;5078518;28;20024;-86
2021/06/14 10:03:43;;;;;;;2.63;1.60;;;26.00;50.90;;;;;;5092146;28;20119;-85
2021/06/14 10:06:10;;;;;;;3.00;1.88;;;26.10;51.00;;;;;;5064674;28;20033;-85
2021/06/14 10:08:36;;;;;;;2.65;1.58;;;26.20;51.00;;;;;;5062782;28;20082;-84
2021/06/14 10:11:05;;;;;;;2.25;1.42;;;26.30;51.00;;;;;;5040526;28;20029;-88
2021/06/14 10:13:32;;;;;;;1.90;1.63;;;26.40;51.00;;;;;;5074161;28;20464;-86
2021/06/14 10:16:00;;;;;;;3.42;1.98;;;26.50;50.90;;;;;;5073949;28;20106;-85
2021/06/14 10:18:32;;;;;;;2.85;2.08;;;26.60;50.80;;;;;;5056975;28;20119;-83
2021/06/14 10:20:57;;;;;;;2.72;1.83;;;26.70;50.70;;;;;;5072823;28;20028;-84
2021/06/14 10:23:23;;;;;;;3.78;2.20;;;26.80;50.60;;;;;;5053487;28;20428;-84
2021/06/14 10:25:49;;;;;;;2.92;1.90;;;26.90;50.60;;;;;;5030064;28;20036;-85
2021/06/14 10:28:15;;;;;;;2.88;1.67;;;27.00;50.50;;;;;;5057020;28;20033;-86
2021/06/14 10:30:42;;;;;;;3.00;1.85;;;27.10;50.50;;;;;;5056593;28;20031;-86
2021/06/14 10:33:08;;;;;;;3.60;1.90;;;27.20;50.50;;;;;;5057432;28;20019;-86
2021/06/14 10:35:36;;;;;;;2.88;2.10;;;27.30;50.40;;;;;;5073596;28;20056;-87
2021/06/14 10:38:03;;;;;;;3.28;1.90;;;27.30;50.20;;;;;;5053765;28;20040;-85
2021/06/14 10:40:29;;;;;;;3.10;1.90;;;27.40;50.30;;;;;;5041154;28;20037;-86
2021/06/14 10:42:56;;;;;;;3.38;1.90;;;27.50;50.20;;;;;;5057118;28;20032;-86
2021/06/14 10:45:28;;;;;;;2.75;1.70;;;27.60;50.20;;;;;;5091989;28;20028;-86
2021/06/14 10:47:55;;;;;;;2.90;1.95;;;27.70;50.10;;;;;;5074035;28;20056;-87
2021/06/14 10:50:24;;;;;;;2.28;1.63;;;27.80;50.10;;;;;;5064881;28;20111;-87
2021/06/14 10:52:51;;;;;;;2.72;1.73;;;27.90;50.00;;;;;;5074752;28;20035;-88
2021/06/14 10:55:19;;;;;;;2.35;1.80;;;28.00;50.00;;;;;;5057603;28;20105;-87
2021/06/14 10:57:47;;;;;;;3.40;2.10;;;28.10;50.00;;;;;;5075359;28;20086;-87
2021/06/14 11:00:34;;;;;;;3.20;2.00;;;28.20;50.00;;;;;;5030329;28;20029;-86
2021/06/14 11:03:11;;;;;;;2.15;1.70;;;28.30;50.10;;;;;;5074596;28;20103;-87
2021/06/14 11:05:41;;;;;;;2.15;1.55;;;28.40;50.00;;;;;;5058019;28;20016;-86
2021/06/14 11:08:18;;;;;;;1.98;1.67;;;28.40;49.80;;;;;;5057390;28;20032;-86
2021/06/14 11:10:58;;;;;;;2.70;1.80;;;28.50;50.00;;;;;;5074468;28;20032;-87
2021/06/14 11:13:24;;;;;;;2.95;1.77;;;28.60;49.90;;;;;;5061663;28;20062;-88
2021/06/14 11:15:55;;;;;;;2.53;1.80;;;28.60;49.90;;;;;;5059349;28;20099;-83
2021/06/14 11:18:32;;;;;;;2.40;1.70;;;28.70;50.00;;;;;;5077245;28;20024;-86
2021/06/14 11:21:14;;;;;;;2.65;1.58;;;28.80;50.10;;;;;;5076349;28;20107;-85
2021/06/14 11:23:41;;;;;;;2.60;1.80;;;28.80;50.10;;;;;;5076953;28;20032;-86
2021/06/14 11:26:12;;;;;;;2.55;1.95;;;28.90;50.10;;;;;;5058276;28;20032;-84
2021/06/14 11:28:43;;;;;;;2.80;1.80;;;28.90;50.20;;;;;;5076389;28;20098;-86
2021/06/14 11:31:28;;;;;;;2.88;1.80;;;29.00;50.40;;;;;;5063820;28;20028;-84
2021/06/14 11:34:02;;;;;;;3.47;1.70;;;29.00;50.60;;;;;;5075347;28;20214;-81
2021/06/14 11:36:31;;;;;;;3.92;2.05;;;29.10;50.40;;;;;;5075601;28;20103;-84
2021/06/14 11:38:58;;;;;;;4.38;2.70;;;29.10;49.20;;;;;;5066401;28;20031;-84
2021/06/14 11:41:29;;;;;;;4.40;2.45;;;29.10;48.20;;;;;;5055931;28;20115;-83
2021/06/14 11:44:24;;;;;;;5.32;2.75;;;29.10;47.30;;;;;;5059061;28;20419;-83
2021/06/14 11:46:52;;;;;;;4.78;2.85;;;29.10;46.80;;;;;;5052444;28;20075;-83
2021/06/14 11:49:20;;;;;;;5.03;2.63;;;29.10;46.50;;;;;;5061039;28;20048;-83
2021/06/14 11:51:45;;;;;;;5.18;2.83;;;29.10;45.70;;;;;;5037194;28;20025;-83
2021/06/14 11:54:16;;;;;;;4.40;2.72;;;29.10;45.40;;;;;;5071432;28;20081;-83
2021/06/14 11:56:42;;;;;;;4.40;2.80;;;29.10;45.20;;;;;;5054154;28;20034;-82
2021/06/14 11:59:08;;;;;;;5.22;2.63;;;29.10;45.20;;;;;;5051663;28;20021;-83
2021/06/14 12:01:36;;;;;;;4.68;2.50;;;29.10;44.90;;;;;;5071638;28;20154;-83
2021/06/14 12:04:09;;;;;;;4.85;2.70;;;29.10;44.60;;;;;;5071171;28;20092;-84
2021/06/14 12:06:48;;;;;;;5.32;2.50;;;29.10;44.30;;;;;;5041654;28;20028;-82
2021/06/14 12:09:17;;;;;;;4.13;2.42;;;29.10;44.20;;;;;;5041868;28;20127;-83
2021/06/14 12:11:43;;;;;;;5.18;2.50;;;29.10;44.10;;;;;;5055244;28;20021;-83
2021/06/14 12:14:16;;;;;;;3.40;2.33;;;29.20;44.10;;;;;;5055845;28;20036;-84
2021/06/14 12:16:44;;;;;;;3.35;2.10;;;29.10;43.80;;;;;;5055526;28;20024;-85
2021/06/14 12:19:10;;;;;;;4.10;2.20;;;29.10;43.70;;;;;;5073414;28;20036;-84
2021/06/14 12:21:37;;;;;;;3.50;2.20;;;29.20;43.70;;;;;;5052171;28;20025;-84
2021/06/14 12:24:13;;;;;;;3.05;1.98;;;29.10;43.50;;;;;;5064187;28;20025;-84
2021/06/14 12:26:41;;;;;;;4.40;2.50;;;29.20;43.60;;;;;;5038999;28;20039;-83
2021/06/14 12:29:23;;;;;;;3.90;2.05;;;29.20;43.80;;;;;;5063876;28;20543;-84
2021/06/14 12:32:08;;;;;;;3.67;2.10;;;29.10;43.80;;;;;;5054763;28;20037;-84
2021/06/14 12:34:37;;;;;;;4.03;2.22;;;29.10;43.60;;;;;;5049455;28;20060;-84
2021/06/14 12:37:08;;;;;;;4.00;2.13;;;29.20;43.30;;;;;;5053048;28;20024;-84
2021/06/14 12:39:35;;;;;;;4.18;2.50;;;29.20;43.30;;;;;;5051583;28;20040;-84
2021/06/14 12:42:01;;;;;;;4.90;2.17;;;29.20;43.30;;;;;;5070555;28;20094;-84
2021/06/14 12:44:27;;;;;;;3.70;2.25;;;29.20;43.10;;;;;;5054044;28;20028;-83
2021/06/14 12:46:53;;;;;;;3.47;2.30;;;29.20;43.10;;;;;;5054396;28;20016;-81
2021/06/14 12:49:24;;;;;;;3.50;2.08;;;29.20;43.10;;;;;;5053958;28;20106;-82
2021/06/14 12:51:51;;;;;;;3.00;2.03;;;29.20;43.30;;;;;;5068107;28;20028;-82
2021/06/14 12:54:19;;;;;;;4.80;2.33;;;29.20;43.70;;;;;;5044263;28;20029;-81
2021/06/14 12:56:56;;;;;;;4.07;1.98;;;29.20;44.10;;;;;;5065170;28;20419;-82
2021/06/14 12:59:22;;;;;;;3.20;1.80;;;29.30;44.60;;;;;;5052821;28;20025;-82